Timeline UpdatesTrip UpdatesNews PostsPvt PostsTravel TipsAdmin PostsConv PostsFollowed PostsChat RequestsBlog PostsPNR Posts

Disclaimer
Search
 
 
Fri Apr 25, 2014 12:19:14 ISTHomeTrainsΣChainsAtlasPNRForumGalleryNewsFAQTripsMembersLoginFeedback
No Recent News for this Train
Other Trains in the News **new
Latest...
Temporary Stop at Vindhyachal (BDL) for 2 min from 31/3/14-11/4/14 #1040164. ***Temporary Augmentation of 1 3AC coach from 4/4/14-27/6/14 #1043381
Wed Apr 02, 2014 (11:27PM)
⇐ Return Journey: Train# 15648

15647/Mumbai LTT-Guwahati Weekly Express

Nov 15 2013 (5:21PM)
Change Departure Station:
Change Arrival Station:
Post a Train Travel TipPost a Train Travel Tip **new
Post a Comment/Question/Picture/VideoPost a Comment/Question/Picture/Video
Pantry/Catering
✓ Pantry Car Avbl
✓ Catering Avbl
RSA - Rake Sharing
Rake/Coach Composition
2A-1; 3A-3; SL-12; GEN-3; PC-1; SLR-2 :: 22 COACH
Loco
ET-GHY =>ET WDMx
News    PNR    Forum    Time-Table    Availability    Fare Chart    Map    Arr/Dep History    Trips    Gallery    ΣChains    X/O    Timeline    
Travel Time: 52h 55m    52 halts    Distance: 2739 km    Avg Speed: 51 km/hr
Type: Mail/Express
Zone: NFR/Northeast Frontier
Departs @ 08:05 (Avg 1h 3m late)
Platform# 5
     F 
Mumbai Lokmanya Tilak Terminus/LTT 
Arrives @ 13:00 +2 nights (Avg 2h 15m late)
Platform# ???
S      
Guwahati/GHY 

52 halts. 434 intermediate Stations between Mumbai Lokmanya Tilak Terminus and Guwahati

Show ALL intermediate Stations  Show Old Time-Table

#CodeStation NameX/OArrivesAvgDepartsAvgHaltPFDay#KmSpeedElevZoneAddress
1LTT»Mumbai Lokmanya Tilak Terminus (5)»  -08:05+1:03510.0737mCRMumbai, Maharashtra
2KYNKalyan Junction (8)X  08:35+1808:40+185m4136.74310mCRKalyan 421301, Maharashtra
3IGPIgatpuri (4)10:35+210:40+75m21118.596589mCRIgatpuri 422403, Maharashtra
4DVLDevlali (3)X  11:08+3311:10+342m11163.419561mCRDist. Nashik 422401, Maharashtra
5NKNasik Road (3)  11:28+2511:30+312m11169.179563mCRNashik 422101, Maharashtra
6MMRManmad Junction (6)  12:25+3012:30+295m11241.982580mCRManmad 423104, Maharashtra
7BSLBhusaval Junction (8)X  14:45+2714:55+3410m--1426.176208mCRBhusaval 425201, Maharashtra
8BAUBurhanpur (2)X  15:38+4815:40+492m21480.636269mCRBurhanpur, Madhya Pradesh
9KNWKhandwa Junction (5)  17:35+717:40+75m--1549.5111310mCRKhandwa, Madhya Pradesh
10HDHarda (3)OO  18:38+2318:40+232m--1657.157289mWCRHarda, Madhya Pradesh
11ETItarsi Junction (7)X20:00+920:10+1610m--1732.972329mWCRItarsi 461111, Madhya Pradesh
12PPIPipariya (3)  21:06+2821:08+292m--1800.181338mWCRPiparia, Madhya Pradesh
13JBPJabalpur Junction (7)X  23:20+3423:30+3710m--1978.178416mWCRJabalpur, Madhya Pradesh
14KTEKatni Junction (6)X  00:40+4100:45+415m--21068.769387mWCRKatni, Madhya Pradesh
15STASatna Junction (3)XO  02:10+3702:20+4010m--21167.145322mWCRSatna, Madhya Pradesh
16COIChheoki Junction (3)  06:05+2206:10+235m--21337.18096mNCRDist.-Allahabad, Uttar Pradesh
17MZPMirzapur (3)X  07:10+4107:15+415m--21417.53888mNCRMirzapur, Uttar Pradesh
18MGSMughal Sarai Junction (8)  08:55+1:0009:10+1:0115m--21480.77583mECRMughalsarai 232101, Uttar Pradesh
19DLNDildarnagar Junction (2)  09:56+1:1309:58+1:132m--21538.48072mECRDildarnagar, Uttar Pradesh
20BXRBuxar (3)  10:25+1:1810:27+1:182m--21574.68967mECRBuxar, Bihar
21DUREDumraon (3)X  10:38+1:2110:40+1:212m--21590.98070mECRDumraon, Bihar
22ARAAra Junction (3)  11:19+1:2411:21+1:252m--21643.19163mECRarrah( 06182-233411), Bihar
23DNRDanapur (5)X  11:47+1:5611:57+1:5810m--21682.61158mECRKhagaul, Bihar
24PNBEPatna Junction (10)X  12:50+1:3313:00+1:3710m821692.03557mECRPatna 800001, Bihar
25PNCPatna Saheb (3)  13:17+1:4213:19+1:432m--21701.94359mECRPatna, Bihar
26FUTFatwa (6)  13:36+1:4213:38+1:442m--21714.16353mECRPatna, Bihar
27KOOKhusropur (2)  13:46+1:4613:48+1:472m--21722.66252mECRPatna, Bihar
28BKPBakhtiyarpur Junction (5)  14:02+1:5714:04+2:012m--21737.26151mECRPatna, Bihar
29BARHBarh (3)  14:22+2:0114:24+2:012m--21755.44349mECRBarh, Bihar
30MKAMokama Junction (3)X  15:00+1:5515:05+1:535m--21781.35648mECRPatna, Bihar
31HTZHathidah Junction (2)  15:14+1:5415:16+1:542m121789.76350mECRMusahari, Bihar
32BRYABarhiya  15:25+1:5815:27+1:582m--21799.13547mECRBarahiya, Bihar
33LKRLuckeesarai Junction (2)  15:53+1:5415:55+1:542m--21814.1852mECRLakhisarai, Bihar
34KIULKiul Junction (5)X  16:05+1:5116:12+1:517m--21815.55153mECRDist. Lakhisarai, Bihar
35AHAAbhaipur  16:39+1:5716:41+1:572m--21838.54252mERAbhaipur, Bihar
36JMPJamalpur Junction (4)X  17:12+1:5717:27+1:5615m--21860.36159mERJamalpur 06344-243101, Bihar
37BUPBariarpur (3)  17:38+2:0117:40+2:012m--21871.55442mERMunger, Bihar
38SGGSultanGanj  18:00+1:5818:02+1:582m--21889.44542mERSultanganj, Bihar
39BGPBhagalpur Junction (6)  18:35+1:5218:50+1:5115m--21914.36949mERBhagalpur, Bihar
40CLGKahalgaon (2)X  19:16+2:0319:18+2:042m121944.43944mERBhagalpur, Bihar
41SBGSahibganj Junction (3)  20:25+1:5620:35+2:0310m121988.34538mERSahibganj, Jharkhand
42BHWBarharwa Junction (3)  21:48+1:5821:50+1:592m222042.84036mERBarharwa, Jharkhand
43NFKNew Farakka Junction (3)  22:17+1:5322:19+1:552m222060.83532mERDist - Murshidabad, West Bengal
44MLDTMalda Town (5)X  23:20+1:3723:35+1:3515m--22095.97430mERDist - Malda, West Bengal
45KNEKishanGanj (3)  01:35+2:0401:40+2:045m--32244.05052mNFRKishanganj, Bihar
46NJPNew Jalpaiguri Junction (8)X  03:25+2:0303:40+2:0115m--32331.349114mNFRCity-Siliguri . Dist-Jalpaiguri, West Bengal
47DQGDhupguri (2)  05:00+1:5905:05+2:015m--32396.66075mNFRDist - Jalpaiguri, West Bengal
48NCBNew Cooch Behar Junction (5)  06:05+1:5706:10+1:565m--32456.84547mNFRPIN-736101. ., West Bengal
49NOQNew Alipurduar (2)  06:35+2:1406:40+2:145m--32475.45348mNFRAlipurduar-736121, West Bengal
50NBQNew Bongaigaon Junction (4)  08:40+2:0208:50+2:0110m--32582.14358mNFR783381., Assam
51BPRDBarpeta Road  09:52+1:2909:57+1:285m--32626.25049mNFRHowli, Assam
52RNYRangiya Junction (5)  11:15+1:1911:25+1:2110m--32691.13858mNFRRangia, Assam
53KYQKamakhya Junction (4)  12:30+2:1412:35+2:145m--32731.81755mNFRDist - KAMRUP, Assam
54GHY•Guwahati (7)•  13:00+2:15---32738.7-60mNFRGuwahati, Assam
Scroll to Top
Scroll to Bottom